Time;durP1;ratioP1;P1;durP2;ratioP2;P2;SDS_P1;SDS_P2;PMS_P1;PMS_P2;Temp;Humidity;BMP_temperature;BMP_pressure;BME280_temperature;BME280_humidity;BME280_pressure;Samples;Min_cycle;Max_cycle;Signal;HPM_P1;HPM_P2
2023/09/03 00:01:43;;;;;;;29.05;20.35;;;19.10;99.90;;;;;;5044748;28;20021;-74
2023/09/03 00:04:09;;;;;;;38.38;24.92;;;19.00;99.90;;;;;;5041589;28;20032;-73
2023/09/03 00:06:35;;;;;;;42.83;27.17;;;19.00;99.90;;;;;;5046475;28;20032;-73
2023/09/03 00:09:00;;;;;;;41.85;29.20;;;18.90;99.90;;;;;;5053313;28;20120;-73
2023/09/03 00:11:26;;;;;;;36.17;24.27;;;19.00;99.90;;;;;;5043927;28;20025;-73
2023/09/03 00:13:52;;;;;;;29.73;20.10;;;19.00;99.90;;;;;;5044900;28;20017;-74
2023/09/03 00:16:17;;;;;;;27.70;19.55;;;18.90;99.90;;;;;;5038785;28;20030;-73
2023/09/03 00:18:43;;;;;;;26.70;19.38;;;18.90;99.90;;;;;;5040208;28;20408;-73
2023/09/03 00:21:08;;;;;;;28.73;19.35;;;18.80;99.90;;;;;;5038170;28;20478;-73
2023/09/03 00:23:34;;;;;;;31.33;20.00;;;18.80;99.90;;;;;;5044266;28;20029;-74
2023/09/03 00:26:01;;;;;;;29.15;19.67;;;18.80;99.90;;;;;;5045915;28;20025;-73
2023/09/03 00:28:27;;;;;;;32.25;21.90;;;18.80;99.90;;;;;;5042258;28;20502;-74
2023/09/03 00:31:08;;;;;;;24.98;18.88;;;18.70;99.90;;;;;;5041581;28;20025;-75
2023/09/03 00:33:34;;;;;;;27.55;18.90;;;18.80;99.90;;;;;;5041482;28;20040;-74
2023/09/03 00:36:01;;;;;;;23.60;18.58;;;18.70;99.90;;;;;;5041649;28;20091;-73
2023/09/03 00:38:27;;;;;;;18.08;15.48;;;18.50;99.90;;;;;;5050161;28;20033;-74
2023/09/03 00:40:53;;;;;;;18.25;15.00;;;18.60;99.90;;;;;;5046564;28;20485;-73
2023/09/03 00:43:19;;;;;;;19.13;15.13;;;18.60;99.90;;;;;;5043115;28;20029;-74
2023/09/03 00:45:46;;;;;;;16.20;14.35;;;18.50;99.90;;;;;;5039925;28;20025;-73
2023/09/03 00:48:15;;;;;;;16.13;13.50;;;18.50;99.90;;;;;;5048782;28;20100;-74
2023/09/03 00:50:41;;;;;;;19.25;15.57;;;18.50;99.90;;;;;;5042672;28;20035;-74
2023/09/03 00:53:09;;;;;;;25.42;17.15;;;18.50;99.90;;;;;;5046754;28;20021;-74
2023/09/03 00:55:36;;;;;;;22.63;17.92;;;18.50;99.90;;;;;;5051002;28;20036;-74
2023/09/03 00:58:04;;;;;;;27.73;17.60;;;18.50;99.90;;;;;;5048822;28;20017;-74
2023/09/03 01:00:30;;;;;;;25.83;16.98;;;18.50;99.90;;;;;;5039866;28;20045;-74
2023/09/03 01:02:56;;;;;;;31.50;19.10;;;18.40;99.90;;;;;;5041974;28;20029;-73
2023/09/03 01:05:21;;;;;;;27.38;18.50;;;18.40;99.90;;;;;;5041602;28;20040;-73
2023/09/03 01:07:49;;;;;;;25.55;18.05;;;18.50;99.90;;;;;;5044213;28;20025;-73
2023/09/03 01:10:16;;;;;;;26.83;18.92;;;18.40;99.90;;;;;;5043396;28;20021;-74
2023/09/03 01:12:59;;;;;;;32.45;19.50;;;18.40;99.90;;;;;;5041237;28;20020;-74
2023/09/03 01:15:33;;;;;;;28.33;20.17;;;18.40;99.90;;;;;;5044273;28;20032;-73
2023/09/03 01:18:11;;;;;;;31.65;22.17;;;18.40;99.90;;;;;;5041024;28;20497;-74
2023/09/03 01:21:15;;;;;;;27.67;20.50;;;18.30;99.90;;;;;;5040101;28;20397;-73
2023/09/03 01:23:44;;;;;;;;;;;18.30;99.90;;;;;;5049195;28;20022;-73
2023/09/03 01:26:47;;;;;;;30.13;21.55;;;18.20;99.90;;;;;;5040370;28;19917;-73
2023/09/03 01:29:15;;;;;;;31.10;21.25;;;18.30;99.90;;;;;;5038574;28;20100;-74
2023/09/03 01:31:42;;;;;;;35.00;21.92;;;18.20;99.90;;;;;;5041689;28;20037;-74
2023/09/03 01:34:09;;;;;;;38.70;24.92;;;18.20;99.90;;;;;;5038221;28;20024;-74
2023/09/03 01:36:35;;;;;;;35.50;25.27;;;18.20;99.90;;;;;;5041750;28;20022;-74
2023/09/03 01:39:03;;;;;;;34.13;24.52;;;18.20;99.90;;;;;;5041433;28;20096;-74
2023/09/03 01:41:38;;;;;;;36.15;25.35;;;18.20;99.90;;;;;;5038716;28;20079;-73
2023/09/03 01:44:08;;;;;;;41.40;28.38;;;18.10;99.90;;;;;;5044163;28;20032;-74
2023/09/03 01:46:48;;;;;;;37.25;26.90;;;18.10;99.90;;;;;;5042975;28;20036;-74
2023/09/03 01:49:41;;;;;;;40.80;26.48;;;18.10;99.90;;;;;;5039462;28;20017;-74
2023/09/03 01:52:13;;;;;;;;;;;18.10;99.90;;;;;;5042969;28;20028;-73
2023/09/03 01:54:40;;;;;;;39.50;28.17;;;18.00;99.90;;;;;;5040720;28;19917;-74
2023/09/03 01:57:12;;;;;;;38.25;26.85;;;18.10;99.90;;;;;;5046235;28;20036;-73
2023/09/03 01:59:49;;;;;;;41.83;26.55;;;18.10;99.90;;;;;;5039141;28;20033;-73
2023/09/03 02:02:16;;;;;;;34.88;25.67;;;18.00;99.90;;;;;;5045516;28;20026;-74
2023/09/03 02:04:42;;;;;;;43.40;30.10;;;18.00;99.90;;;;;;5046825;28;20021;-73
2023/09/03 02:07:08;;;;;;;42.40;28.80;;;18.00;99.90;;;;;;5040446;28;20348;-73
2023/09/03 02:09:34;;;;;;;37.47;26.90;;;17.90;99.90;;;;;;5038372;28;20029;-72
2023/09/03 02:12:00;;;;;;;43.30;27.70;;;17.90;99.90;;;;;;5050079;28;20087;-74
2023/09/03 02:14:26;;;;;;;46.78;28.15;;;17.90;99.90;;;;;;5042876;28;20097;-74
2023/09/03 02:16:53;;;;;;;39.72;27.60;;;17.90;99.90;;;;;;5044235;28;20469;-73
2023/09/03 02:19:18;;;;;;;39.40;27.58;;;17.90;99.90;;;;;;5040622;28;20516;-72
2023/09/03 02:21:44;;;;;;;40.80;29.40;;;17.90;99.90;;;;;;5046361;28;20026;-74
2023/09/03 02:24:10;;;;;;;38.72;27.25;;;17.90;99.90;;;;;;5047092;28;20071;-74
2023/09/03 02:26:43;;;;;;;35.72;23.42;;;17.90;99.90;;;;;;5045633;28;20135;-73
2023/09/03 02:29:09;;;;;;;35.88;25.75;;;17.90;99.90;;;;;;5042654;28;20120;-74
2023/09/03 02:31:35;;;;;;;32.72;23.10;;;17.90;99.90;;;;;;5047457;28;20028;-74
2023/09/03 02:34:03;;;;;;;33.38;23.63;;;17.80;99.90;;;;;;5047406;28;20021;-74
2023/09/03 02:36:30;;;;;;;33.13;25.90;;;17.70;99.90;;;;;;5050517;28;20100;-74
2023/09/03 02:39:03;;;;;;;37.03;27.25;;;17.80;99.90;;;;;;5043943;28;20051;-74
2023/09/03 02:41:29;;;;;;;35.10;26.48;;;17.80;99.90;;;;;;5044068;28;20402;-74
2023/09/03 02:43:57;;;;;;;36.35;26.13;;;17.80;99.90;;;;;;5049614;28;20028;-73
2023/09/03 02:46:23;;;;;;;35.92;25.00;;;17.70;99.90;;;;;;5045617;28;20057;-74
2023/09/03 02:48:49;;;;;;;33.70;23.52;;;17.70;99.90;;;;;;5050583;28;20052;-74
2023/09/03 02:51:14;;;;;;;32.63;21.70;;;17.60;99.90;;;;;;5047527;28;20032;-73
2023/09/03 02:53:42;;;;;;;28.23;22.45;;;17.60;99.90;;;;;;5044609;28;20025;-73
2023/09/03 02:56:08;;;;;;;28.15;21.98;;;17.60;99.90;;;;;;5048526;28;20036;-73
2023/09/03 02:58:34;;;;;;;30.95;22.92;;;17.70;99.90;;;;;;5045698;28;20024;-74
2023/09/03 03:01:14;;;;;;;30.30;21.88;;;17.70;99.90;;;;;;5048542;28;20029;-73
2023/09/03 03:03:41;;;;;;;30.38;22.08;;;17.70;99.90;;;;;;5045941;28;20020;-72
2023/09/03 03:06:06;;;;;;;29.23;20.80;;;17.60;99.90;;;;;;5048024;28;20473;-73
2023/09/03 03:08:32;;;;;;;33.40;23.40;;;17.60;99.90;;;;;;5052199;28;20052;-73
2023/09/03 03:11:12;;;;;;;26.27;20.33;;;17.60;99.90;;;;;;5045276;28;20041;-73
2023/09/03 03:13:39;;;;;;;29.42;23.02;;;17.60;99.90;;;;;;5041756;28;20493;-73
2023/09/03 03:16:09;;;;;;;30.35;24.42;;;17.60;99.90;;;;;;5046278;28;20064;-73
2023/09/03 03:18:37;;;;;;;27.48;22.00;;;17.50;99.90;;;;;;5049911;28;20155;-74
2023/09/03 03:21:10;;;;;;;33.40;23.95;;;17.50;99.90;;;;;;5044773;28;20028;-74
2023/09/03 03:23:37;;;;;;;31.77;24.98;;;17.50;99.90;;;;;;5043822;28;20014;-74
2023/09/03 03:26:03;;;;;;;36.15;26.23;;;17.50;99.90;;;;;;5044992;28;20041;-73
2023/09/03 03:28:33;;;;;;;35.72;24.45;;;17.50;99.90;;;;;;5050532;28;20481;-73
2023/09/03 03:31:28;;;;;;;33.67;24.90;;;17.50;99.90;;;;;;5049035;28;20096;-73
2023/09/03 03:33:54;;;;;;;35.92;24.92;;;17.50;99.90;;;;;;5041587;28;20091;-73
2023/09/03 03:36:21;;;;;;;34.08;25.50;;;17.50;99.90;;;;;;5045589;28;20441;-73
2023/09/03 03:38:47;;;;;;;35.40;26.38;;;17.50;99.90;;;;;;5047627;28;20029;-73
2023/09/03 03:41:18;;;;;;;36.95;25.90;;;17.50;99.90;;;;;;5043403;28;20091;-73
2023/09/03 03:43:46;;;;;;;34.42;25.38;;;17.40;99.90;;;;;;5047172;28;20030;-72
2023/09/03 03:46:16;;;;;;;30.48;24.27;;;17.40;99.90;;;;;;5042502;28;20040;-73
2023/09/03 03:48:43;;;;;;;38.78;26.17;;;17.40;99.90;;;;;;5041316;28;20017;-73
2023/09/03 03:51:08;;;;;;;35.95;27.05;;;17.40;99.90;;;;;;5039186;28;20029;-73
2023/09/03 03:53:35;;;;;;;37.17;26.23;;;17.30;99.90;;;;;;5043108;28;20119;-73
2023/09/03 03:56:05;;;;;;;39.17;25.65;;;17.30;99.90;;;;;;5043973;28;20033;-73
2023/09/03 03:58:36;;;;;;;32.10;24.10;;;17.30;99.90;;;;;;5043330;28;20028;-73
2023/09/03 04:01:11;;;;;;;34.60;23.92;;;17.30;99.90;;;;;;5043768;28;20104;-73
2023/09/03 04:03:37;;;;;;;33.83;23.70;;;17.40;99.90;;;;;;5042948;28;20112;-73
2023/09/03 04:06:02;;;;;;;34.85;23.13;;;17.40;99.90;;;;;;5042986;28;20474;-73
2023/09/03 04:08:31;;;;;;;31.08;22.83;;;17.20;99.90;;;;;;5044696;28;20041;-72
2023/09/03 04:10:57;;;;;;;32.17;23.27;;;17.20;99.90;;;;;;5041288;28;20146;-74
2023/09/03 04:13:24;;;;;;;32.42;22.10;;;17.10;99.90;;;;;;5040635;28;20028;-72
2023/09/03 04:15:50;;;;;;;33.83;22.75;;;17.10;99.90;;;;;;5047586;28;20029;-74
2023/09/03 04:18:15;;;;;;;29.55;21.65;;;17.10;99.90;;;;;;5049934;28;20009;-74
2023/09/03 04:20:41;;;;;;;35.40;22.83;;;17.10;99.90;;;;;;5041794;28;20036;-74
2023/09/03 04:23:07;;;;;;;31.45;23.55;;;17.10;99.90;;;;;;5044151;28;20056;-74
2023/09/03 04:25:33;;;;;;;32.03;24.40;;;17.10;99.90;;;;;;5044649;28;20461;-72
2023/09/03 04:27:58;;;;;;;30.83;21.65;;;17.10;99.90;;;;;;5043360;28;20481;-73
2023/09/03 04:30:24;;;;;;;30.45;21.50;;;17.10;99.90;;;;;;5044481;28;20108;-73
2023/09/03 04:32:49;;;;;;;31.02;21.17;;;17.00;99.90;;;;;;5041539;28;20025;-74
2023/09/03 04:35:15;;;;;;;24.88;21.13;;;16.90;99.90;;;;;;5042107;28;20023;-73
2023/09/03 04:37:41;;;;;;;28.90;23.55;;;16.90;99.90;;;;;;5046183;28;20075;-73
2023/09/03 04:40:08;;;;;;;27.83;20.83;;;17.00;99.90;;;;;;5043065;28;20087;-73
2023/09/03 04:42:34;;;;;;;26.75;19.85;;;17.00;99.90;;;;;;5044144;28;20031;-73
2023/09/03 04:45:03;;;;;;;27.23;21.10;;;17.00;99.90;;;;;;5045012;28;20044;-73
2023/09/03 04:47:29;;;;;;;27.83;21.52;;;17.00;99.90;;;;;;5041174;28;20398;-74
2023/09/03 04:49:55;;;;;;;25.83;20.50;;;17.00;99.90;;;;;;5039187;28;20031;-74
2023/09/03 04:52:20;;;;;;;24.90;20.38;;;17.00;99.90;;;;;;5042844;28;20071;-73
2023/09/03 04:54:46;;;;;;;25.85;20.98;;;17.00;99.90;;;;;;5043073;28;20021;-73
2023/09/03 04:57:12;;;;;;;25.45;19.85;;;17.00;99.90;;;;;;5043772;28;20513;-73
2023/09/03 04:59:38;;;;;;;26.98;19.60;;;17.00;99.90;;;;;;5045742;28;20018;-73
2023/09/03 05:02:03;;;;;;;26.05;19.73;;;16.90;99.90;;;;;;5044455;28;20482;-74
2023/09/03 05:04:29;;;;;;;23.52;20.92;;;16.90;99.90;;;;;;5041692;28;20060;-74
2023/09/03 05:06:56;;;;;;;21.48;19.08;;;16.90;99.90;;;;;;5038889;28;20482;-73
2023/09/03 05:09:22;;;;;;;24.42;20.13;;;16.90;99.90;;;;;;5040328;28;20035;-74
2023/09/03 05:11:47;;;;;;;23.55;20.92;;;16.90;99.90;;;;;;5043321;28;20033;-74
2023/09/03 05:14:13;;;;;;;21.20;18.98;;;16.90;99.90;;;;;;5043326;28;20451;-73
2023/09/03 05:16:39;;;;;;;23.00;19.50;;;16.90;99.90;;;;;;5042992;28;20029;-73
2023/09/03 05:19:05;;;;;;;26.70;19.73;;;16.90;99.90;;;;;;5041487;28;20067;-74
2023/09/03 05:21:33;;;;;;;25.27;20.25;;;17.00;99.90;;;;;;5050749;28;20021;-73
2023/09/03 05:24:01;;;;;;;26.63;22.05;;;16.90;99.90;;;;;;5044539;28;20397;-73
2023/09/03 05:26:26;;;;;;;26.42;21.55;;;16.90;99.90;;;;;;5043320;28;20040;-74
2023/09/03 05:28:52;;;;;;;27.90;21.33;;;16.90;99.90;;;;;;5040265;28;20033;-73
2023/09/03 05:31:18;;;;;;;32.15;22.17;;;16.90;99.90;;;;;;5041437;28;20052;-73
2023/09/03 05:33:43;;;;;;;27.33;22.55;;;16.80;99.90;;;;;;5041475;28;20010;-73
2023/09/03 05:36:09;;;;;;;27.17;20.83;;;16.80;99.90;;;;;;5042660;28;20154;-73
2023/09/03 05:38:35;;;;;;;25.10;18.17;;;16.80;99.90;;;;;;5041914;28;20013;-74
2023/09/03 05:41:00;;;;;;;19.30;16.60;;;16.80;99.90;;;;;;5042208;28;20044;-73
2023/09/03 05:43:26;;;;;;;22.05;18.35;;;16.80;99.90;;;;;;5040531;28;20079;-73
2023/09/03 05:45:52;;;;;;;22.30;18.85;;;16.80;99.90;;;;;;5039258;28;20541;-74
2023/09/03 05:48:18;;;;;;;27.48;19.90;;;16.80;99.90;;;;;;5046213;28;20172;-73
2023/09/03 05:50:43;;;;;;;24.48;19.85;;;16.90;99.90;;;;;;5039547;28;20029;-73
2023/09/03 05:53:09;;;;;;;29.67;20.23;;;16.90;99.90;;;;;;5043517;28;20006;-73
2023/09/03 05:55:39;;;;;;;34.55;22.55;;;16.90;99.90;;;;;;5043023;28;20450;-73
2023/09/03 05:58:06;;;;;;;27.92;21.05;;;16.90;99.90;;;;;;5042415;28;20025;-74
2023/09/03 06:00:31;;;;;;;28.55;21.88;;;16.90;99.90;;;;;;5044409;28;20445;-73
2023/09/03 06:02:57;;;;;;;29.00;22.17;;;16.90;99.90;;;;;;5046110;28;20024;-74
2023/09/03 06:05:29;;;;;;;30.00;21.48;;;17.00;99.90;;;;;;5043749;28;20044;-73
2023/09/03 06:07:57;;;;;;;26.23;22.23;;;17.00;99.90;;;;;;5045436;28;20028;-73
2023/09/03 06:10:24;;;;;;;25.88;20.05;;;17.00;99.90;;;;;;5041036;28;20048;-74
2023/09/03 06:12:49;;;;;;;28.02;20.90;;;17.00;99.90;;;;;;5043376;28;20017;-74
2023/09/03 06:15:15;;;;;;;33.33;22.58;;;17.00;99.90;;;;;;5040272;28;20493;-73
2023/09/03 06:17:41;;;;;;;26.65;20.63;;;17.00;99.90;;;;;;5043655;28;20466;-75
2023/09/03 06:20:07;;;;;;;28.08;20.73;;;17.00;99.90;;;;;;5039816;28;20454;-73
2023/09/03 06:22:32;;;;;;;30.40;22.20;;;17.00;99.90;;;;;;5042581;28;20411;-73
2023/09/03 06:24:58;;;;;;;27.27;21.92;;;17.10;99.90;;;;;;5041553;28;20071;-73
2023/09/03 06:27:24;;;;;;;31.05;22.42;;;17.10;99.90;;;;;;5044067;28;20064;-73
2023/09/03 06:29:50;;;;;;;26.67;20.45;;;17.10;99.90;;;;;;5041112;28;20021;-74
2023/09/03 06:32:15;;;;;;;30.23;22.65;;;17.10;99.90;;;;;;5043054;28;20029;-74
2023/09/03 06:34:41;;;;;;;29.73;19.85;;;17.10;99.90;;;;;;5048547;28;20028;-73
2023/09/03 06:37:07;;;;;;;27.65;19.52;;;17.20;99.90;;;;;;5038659;28;20035;-74
2023/09/03 06:39:33;;;;;;;30.30;23.88;;;17.20;99.90;;;;;;5039271;28;20090;-74
2023/09/03 06:41:58;;;;;;;32.80;22.50;;;17.20;99.90;;;;;;5044011;28;20729;-74
2023/09/03 06:44:25;;;;;;;26.48;21.08;;;17.30;99.90;;;;;;5041193;28;20017;-73
2023/09/03 06:46:51;;;;;;;28.67;21.17;;;17.30;99.90;;;;;;5048529;28;20049;-74
2023/09/03 06:49:16;;;;;;;28.40;22.58;;;17.20;99.90;;;;;;5042628;28;20066;-74
2023/09/03 06:51:42;;;;;;;27.85;23.52;;;17.30;99.90;;;;;;5045176;28;20024;-74
2023/09/03 06:54:08;;;;;;;33.35;26.10;;;17.30;99.90;;;;;;5042590;28;20539;-73
2023/09/03 06:56:34;;;;;;;31.45;25.42;;;17.40;99.90;;;;;;5044069;28;20079;-73
2023/09/03 06:58:59;;;;;;;35.47;28.63;;;17.40;99.90;;;;;;5040855;28;20078;-74
2023/09/03 07:01:25;;;;;;;36.92;28.88;;;17.40;99.90;;;;;;5051091;28;20107;-74
2023/09/03 07:03:51;;;;;;;38.42;31.48;;;17.40;99.90;;;;;;5041907;28;20017;-73
2023/09/03 07:06:16;;;;;;;44.15;31.83;;;17.50;99.90;;;;;;5042418;28;20033;-74
2023/09/03 07:08:42;;;;;;;38.35;29.20;;;17.50;99.90;;;;;;5045943;28;20382;-74
2023/09/03 07:11:08;;;;;;;42.15;32.78;;;17.50;99.90;;;;;;5043298;28;20025;-74
2023/09/03 07:13:33;;;;;;;40.72;31.67;;;17.40;99.90;;;;;;5042694;28;20551;-74
2023/09/03 07:16:04;;;;;;;41.05;30.08;;;17.50;99.90;;;;;;5051014;28;20455;-75
2023/09/03 07:18:33;;;;;;;40.72;32.63;;;17.50;99.90;;;;;;5040756;28;20017;-74
2023/09/03 07:21:06;;;;;;;45.65;32.25;;;17.50;99.90;;;;;;5039818;28;20122;-73
2023/09/03 07:23:33;;;;;;;44.90;33.55;;;17.50;99.90;;;;;;5042748;28;20044;-74
2023/09/03 07:26:05;;;;;;;45.88;34.67;;;17.60;99.90;;;;;;5049097;28;20504;-74
2023/09/03 07:28:31;;;;;;;47.85;33.78;;;17.60;99.90;;;;;;5049501;28;20017;-74
2023/09/03 07:30:57;;;;;;;47.45;35.08;;;17.70;99.90;;;;;;5044324;28;20025;-73
2023/09/03 07:33:22;;;;;;;52.47;37.85;;;17.60;99.90;;;;;;5045266;28;20032;-73
2023/09/03 07:35:48;;;;;;;52.88;39.80;;;17.60;99.90;;;;;;5046860;28;20021;-73
2023/09/03 07:38:14;;;;;;;53.95;40.35;;;17.60;99.90;;;;;;5042816;28;20029;-72
2023/09/03 07:40:40;;;;;;;53.30;39.60;;;17.70;99.90;;;;;;5040430;28;20479;-71
2023/09/03 07:43:05;;;;;;;59.20;41.35;;;17.70;99.90;;;;;;5044999;28;20474;-73
2023/09/03 07:45:31;;;;;;;57.75;40.20;;;17.80;99.90;;;;;;5041722;28;20036;-74
2023/09/03 07:47:57;;;;;;;54.08;38.85;;;17.80;99.90;;;;;;5046459;28;20025;-73
2023/09/03 07:50:23;;;;;;;55.90;40.22;;;17.80;99.90;;;;;;5042528;28;20121;-71
2023/09/03 07:52:49;;;;;;;68.07;46.30;;;17.90;99.90;;;;;;5043557;28;20100;-72
2023/09/03 07:55:15;;;;;;;54.88;39.30;;;17.90;99.90;;;;;;5038710;28;20025;-72
2023/09/03 07:57:41;;;;;;;61.65;42.28;;;17.90;99.90;;;;;;5044260;28;20029;-72
2023/09/03 08:00:07;;;;;;;61.60;43.20;;;18.10;99.90;;;;;;5037363;28;20478;-72
2023/09/03 08:02:33;;;;;;;61.63;43.80;;;18.10;99.90;;;;;;5042937;28;20009;-72
2023/09/03 08:04:59;;;;;;;60.85;44.00;;;18.30;99.90;;;;;;5048741;28;20748;-72
2023/09/03 08:07:24;;;;;;;68.35;46.72;;;18.30;99.90;;;;;;5042692;28;20060;-72
2023/09/03 08:09:50;;;;;;;72.60;48.25;;;18.40;99.90;;;;;;5042447;28;20017;-72
2023/09/03 08:12:16;;;;;;;69.00;47.13;;;18.50;99.90;;;;;;5042834;28;20111;-72
2023/09/03 08:14:48;;;;;;;67.95;44.33;;;18.60;99.90;;;;;;5044303;28;20025;-73
2023/09/03 08:17:15;;;;;;;62.35;44.70;;;18.70;99.90;;;;;;5043969;28;20032;-72
2023/09/03 08:19:40;;;;;;;65.65;45.70;;;18.80;99.90;;;;;;5043182;28;20500;-72
2023/09/03 08:22:06;;;;;;;72.78;48.50;;;18.90;99.90;;;;;;5040995;28;20025;-72
2023/09/03 08:24:32;;;;;;;70.35;46.15;;;19.00;99.90;;;;;;5043265;28;20036;-72
2023/09/03 08:27:00;;;;;;;66.53;44.38;;;19.00;99.90;;;;;;5041267;28;20029;-72
2023/09/03 08:29:26;;;;;;;61.30;40.88;;;19.10;99.90;;;;;;5043192;28;20061;-73
2023/09/03 08:31:52;;;;;;;49.25;36.03;;;19.20;99.90;;;;;;5050017;28;20114;-73
2023/09/03 08:34:17;;;;;;;52.42;34.85;;;19.30;99.90;;;;;;5046392;28;20025;-73
2023/09/03 08:36:43;;;;;;;47.60;35.88;;;19.30;99.90;;;;;;5040990;28;20028;-73
2023/09/03 08:39:09;;;;;;;46.80;35.95;;;19.40;99.90;;;;;;5045069;28;20032;-73
2023/09/03 08:41:39;;;;;;;37.28;31.70;;;19.50;99.90;;;;;;5047403;28;20021;-73
2023/09/03 08:44:21;;;;;;;49.03;34.67;;;19.60;99.90;;;;;;5043608;28;20021;-73
2023/09/03 08:46:49;;;;;;;50.03;36.38;;;19.70;99.90;;;;;;5042804;28;20080;-71
2023/09/03 08:49:15;;;;;;;42.25;32.28;;;19.80;99.90;;;;;;5043027;28;20032;-71
2023/09/03 08:51:41;;;;;;;42.28;31.63;;;19.90;99.90;;;;;;5042477;28;20029;-72
2023/09/03 08:54:08;;;;;;;43.08;32.63;;;20.00;99.90;;;;;;5045987;28;20038;-73
2023/09/03 08:56:34;;;;;;;39.13;30.63;;;20.10;99.90;;;;;;5042679;28;20061;-74
2023/09/03 08:59:00;;;;;;;38.45;30.33;;;20.20;99.90;;;;;;5043098;28;20013;-72
2023/09/03 09:01:29;;;;;;;42.05;30.80;;;20.30;99.90;;;;;;5040625;28;20029;-73
2023/09/03 09:08:46;;;;;;;38.03;29.27;;;20.60;99.90;;;;;;5100043;27;20412;-73
2023/09/03 09:11:16;;;;;;;35.28;29.05;;;20.60;99.90;;;;;;5090500;28;20058;-73
2023/09/03 09:13:52;;;;;;;35.90;28.15;;;20.60;99.90;;;;;;5093385;28;20066;-73
2023/09/03 09:16:19;;;;;;;36.70;27.15;;;20.70;99.90;;;;;;5090052;28;20111;-73
2023/09/03 09:18:44;;;;;;;30.55;26.50;;;20.80;99.90;;;;;;5087992;28;20047;-71
2023/09/03 09:21:11;;;;;;;33.10;25.73;;;20.90;99.90;;;;;;5079732;28;20359;-72
2023/09/03 09:23:38;;;;;;;31.95;27.60;;;21.10;99.90;;;;;;5094970;28;20036;-72
2023/09/03 09:26:22;;;;;;;32.53;26.42;;;21.30;99.90;;;;;;5090196;28;20059;-73
2023/09/03 09:29:04;;;;;;;30.00;25.85;;;21.40;99.90;;;;;;5083629;28;20036;-72
2023/09/03 09:31:31;;;;;;;27.92;24.05;;;21.50;99.90;;;;;;5082793;28;20527;-74
2023/09/03 09:33:59;;;;;;;27.45;23.95;;;21.70;99.90;;;;;;5097239;28;20035;-73
2023/09/03 09:36:25;;;;;;;28.30;21.98;;;21.70;99.90;;;;;;5083395;28;20457;-72
2023/09/03 09:38:51;;;;;;;23.98;21.40;;;21.80;99.90;;;;;;5088239;28;20035;-71
2023/09/03 09:41:27;;;;;;;23.13;20.63;;;21.90;99.90;;;;;;5094630;28;20024;-72
2023/09/03 09:43:53;;;;;;;24.42;19.52;;;21.90;99.90;;;;;;5085492;28;20025;-72
2023/09/03 09:46:29;;;;;;;29.08;23.83;;;22.10;99.90;;;;;;5091355;28;20020;-72
2023/09/03 09:48:59;;;;;;;19.35;16.80;;;22.30;99.90;;;;;;5095011;28;20046;-72
2023/09/03 09:51:29;;;;;;;21.95;17.17;;;22.50;99.90;;;;;;5083824;28;20023;-73
2023/09/03 09:54:02;;;;;;;21.98;19.50;;;22.60;99.90;;;;;;5095394;28;20028;-72
2023/09/03 09:56:34;;;;;;;22.85;17.80;;;22.60;99.90;;;;;;5082623;28;20043;-73
2023/09/03 09:59:01;;;;;;;19.77;17.63;;;22.70;99.90;;;;;;5093556;28;20024;-72
2023/09/03 10:01:46;;;;;;;22.45;19.08;;;22.80;99.90;;;;;;5100989;28;20044;-72
2023/09/03 10:04:12;;;;;;;18.85;16.58;;;22.90;99.90;;;;;;5092282;28;20074;-72
2023/09/03 10:06:39;;;;;;;19.60;17.27;;;23.10;99.90;;;;;;5092347;28;20048;-73
2023/09/03 10:09:07;;;;;;;17.48;14.60;;;23.10;99.90;;;;;;5085831;28;20027;-72
2023/09/03 10:11:33;;;;;;;16.73;13.60;;;23.10;99.90;;;;;;5090631;28;20051;-73
2023/09/03 10:13:59;;;;;;;12.85;11.63;;;23.10;99.90;;;;;;5088660;28;20783;-73
2023/09/03 10:16:25;;;;;;;17.27;15.38;;;23.10;99.90;;;;;;5088983;28;20085;-73
2023/09/03 10:18:51;;;;;;;16.42;14.82;;;23.10;99.90;;;;;;5065032;28;20025;-73
2023/09/03 10:21:25;;;;;;;15.88;14.00;;;23.10;99.90;;;;;;5075874;28;20012;-73
2023/09/03 10:23:56;;;;;;;20.75;15.77;;;23.10;99.90;;;;;;5094023;28;20362;-73
2023/09/03 10:26:37;;;;;;;15.15;12.93;;;23.20;99.90;;;;;;5079696;28;20393;-73
2023/09/03 10:29:07;;;;;;;15.68;14.18;;;23.20;99.90;;;;;;5071818;28;20033;-74
2023/09/03 10:31:36;;;;;;;18.88;14.93;;;23.20;99.90;;;;;;5071772;28;20025;-74
2023/09/03 10:34:07;;;;;;;16.98;12.68;;;23.10;99.90;;;;;;5080570;28;20765;-73
2023/09/03 10:36:33;;;;;;;13.90;12.55;;;23.20;99.90;;;;;;5071444;28;20074;-73
2023/09/03 10:39:22;;;;;;;17.52;13.02;;;23.20;99.90;;;;;;5082112;28;20032;-72
2023/09/03 10:41:48;;;;;;;12.38;11.07;;;23.30;99.90;;;;;;5074962;28;20025;-73
2023/09/03 10:44:16;;;;;;;12.27;11.07;;;23.30;99.90;;;;;;5080276;28;20020;-73
2023/09/03 10:47:01;;;;;;;16.15;12.32;;;23.40;99.90;;;;;;5071823;28;20043;-73
2023/09/03 10:49:43;;;;;;;12.88;11.57;;;23.50;99.90;;;;;;5070853;28;20028;-73
2023/09/03 10:52:31;;;;;;;;;;;23.50;99.90;;;;;;5080058;28;20558;-74
2023/09/03 10:55:20;;;;;;;13.73;12.32;;;23.50;99.90;;;;;;5073100;28;19915;-73
2023/09/03 10:58:11;;;;;;;11.13;10.00;;;23.80;99.90;;;;;;5078292;28;20025;-73
2023/09/03 11:00:37;;;;;;;15.52;13.85;;;23.80;99.90;;;;;;5073027;28;20025;-74
2023/09/03 11:03:17;;;;;;;14.07;12.77;;;23.80;99.90;;;;;;5067559;28;20064;-73
2023/09/03 11:06:19;;;;;;;14.07;12.70;;;24.10;99.90;;;;;;5069423;28;20012;-73
2023/09/03 11:09:09;;;;;;;14.23;12.70;;;24.20;99.90;;;;;;5068963;28;20048;-73
2023/09/03 11:11:38;;;;;;;12.95;11.30;;;24.30;99.90;;;;;;5059353;28;20062;-73
2023/09/03 11:14:06;;;;;;;15.93;10.60;;;24.20;99.90;;;;;;5066210;28;20547;-73
2023/09/03 11:16:42;;;;;;;12.20;10.35;;;24.30;99.90;;;;;;5070797;28;20035;-72
2023/09/03 11:19:08;;;;;;;12.55;10.95;;;24.30;99.90;;;;;;5077231;28;20487;-72
2023/09/03 11:21:36;;;;;;;14.18;11.63;;;24.40;99.90;;;;;;5062522;28;20014;-72
2023/09/03 11:24:20;;;;;;;16.55;13.43;;;24.30;99.90;;;;;;5065623;28;20103;-72
2023/09/03 11:27:02;;;;;;;16.40;13.55;;;24.40;99.90;;;;;;5071898;28;20119;-72
2023/09/03 11:29:28;;;;;;;15.77;12.70;;;24.40;99.90;;;;;;5067781;28;20032;-72
2023/09/03 11:31:54;;;;;;;13.40;11.32;;;24.40;99.90;;;;;;5078215;28;20476;-72
2023/09/03 11:34:28;;;;;;;12.80;10.30;;;24.50;99.90;;;;;;5069019;28;20070;-71
2023/09/03 11:37:03;;;;;;;13.27;11.98;;;24.70;99.90;;;;;;5070477;28;20035;-72
2023/09/03 11:39:30;;;;;;;13.68;11.57;;;24.80;99.90;;;;;;5073155;28;20032;-72
2023/09/03 11:41:56;;;;;;;11.65;10.55;;;24.80;99.90;;;;;;5080053;28;20032;-74
2023/09/03 11:44:23;;;;;;;12.07;10.35;;;24.80;99.90;;;;;;5078849;28;20020;-72
2023/09/03 11:47:02;;;;;;;11.70;10.50;;;24.80;99.90;;;;;;5063517;28;20443;-72
2023/09/03 11:49:27;;;;;;;9.45;8.48;;;24.70;99.90;;;;;;5076912;28;20020;-72
2023/09/03 11:51:54;;;;;;;10.55;8.40;;;24.80;99.90;;;;;;5077584;28;20530;-72
2023/09/03 11:54:23;;;;;;;7.88;7.15;;;24.90;99.90;;;;;;5072651;28;20413;-73
2023/09/03 11:56:50;;;;;;;11.00;9.55;;;24.80;99.90;;;;;;5067111;28;20036;-73
2023/09/03 11:59:16;;;;;;;10.88;9.27;;;25.00;99.90;;;;;;5067641;28;20086;-73
2023/09/03 12:01:41;;;;;;;12.70;11.27;;;25.10;99.90;;;;;;5076860;28;20416;-73
2023/09/03 12:04:07;;;;;;;11.63;10.52;;;25.10;99.90;;;;;;5065403;28;20017;-73
2023/09/03 12:06:37;;;;;;;9.07;8.18;;;25.00;99.90;;;;;;5071714;28;20106;-74
2023/09/03 12:09:03;;;;;;;8.85;7.93;;;25.10;99.90;;;;;;5067136;28;20039;-74
2023/09/03 12:11:32;;;;;;;9.52;7.40;;;25.20;99.90;;;;;;5072844;28;20012;-74
2023/09/03 12:13:58;;;;;;;13.35;8.30;;;25.30;99.90;;;;;;5080668;28;20024;-74
2023/09/03 12:16:24;;;;;;;11.60;9.00;;;25.10;99.90;;;;;;5071321;28;20058;-74
2023/09/03 12:18:58;;;;;;;10.65;9.52;;;25.20;99.90;;;;;;5072372;28;20112;-73
2023/09/03 12:21:35;;;;;;;11.25;9.70;;;25.10;99.90;;;;;;5079111;28;20111;-73
2023/09/03 12:24:07;;;;;;;11.50;9.77;;;25.00;99.90;;;;;;5063727;28;20039;-73
2023/09/03 12:26:37;;;;;;;9.95;8.90;;;25.10;99.90;;;;;;5069752;28;20055;-72
2023/09/03 12:29:04;;;;;;;7.63;6.25;;;25.20;99.90;;;;;;5070456;28;20024;-73
2023/09/03 12:31:43;;;;;;;9.48;6.90;;;25.00;99.90;;;;;;5070586;28;20107;-73
2023/09/03 12:34:09;;;;;;;9.32;8.25;;;25.10;99.90;;;;;;5073595;28;20146;-73
2023/09/03 12:36:54;;;;;;;8.15;7.40;;;25.10;99.90;;;;;;5073344;28;20035;-73
2023/09/03 12:39:33;;;;;;;8.13;7.35;;;25.20;99.90;;;;;;5072640;28;20496;-74
2023/09/03 12:42:00;;;;;;;8.80;5.88;;;25.30;99.90;;;;;;5063997;28;20388;-74